Time;durP1;ratioP1;P1;durP2;ratioP2;P2;SDS_P1;SDS_P2;PMS_P1;PMS_P2;Temp;Humidity;BMP_temperature;BMP_pressure;BME280_temperature;BME280_humidity;BME280_pressure;Samples;Min_cycle;Max_cycle;Signal;HPM_P1;HPM_P2
2021/05/08 00:01:04;;;;;;;4.68;2.80;;;18.10;57.50;;;;;;6169882;23;20145;-80
2021/05/08 00:03:30;;;;;;;5.38;2.53;;;18.10;57.40;;;;;;6169437;23;20552;-80
2021/05/08 00:06:01;;;;;;;5.00;3.22;;;18.10;56.90;;;;;;6144872;23;20192;-80
2021/05/08 00:08:28;;;;;;;4.97;2.75;;;18.10;57.10;;;;;;6145809;23;20182;-79
2021/05/08 00:10:56;;;;;;;3.88;2.90;;;18.00;57.50;;;;;;6169807;23;20552;-80
2021/05/08 00:13:29;;;;;;;4.35;2.85;;;18.10;57.30;;;;;;6122340;23;20190;-80
2021/05/08 00:16:00;;;;;;;6.70;3.25;;;18.10;57.00;;;;;;6121188;23;20170;-80
2021/05/08 00:18:27;;;;;;;4.20;2.97;;;18.00;57.60;;;;;;6120804;23;20150;-80
2021/05/08 00:20:56;;;;;;;4.93;3.20;;;18.00;57.60;;;;;;6144769;23;20241;-80
2021/05/08 00:23:23;;;;;;;5.85;3.25;;;18.00;57.00;;;;;;6145467;23;20128;-80
2021/05/08 00:25:56;;;;;;;3.95;3.05;;;18.00;57.30;;;;;;6144568;23;20218;-81
2021/05/08 00:28:22;;;;;;;5.68;3.05;;;18.00;57.00;;;;;;6144282;23;20181;-80
2021/05/08 00:30:48;;;;;;;5.10;2.95;;;18.10;56.70;;;;;;6144564;23;20127;-80
2021/05/08 00:33:18;;;;;;;5.18;2.95;;;18.00;56.80;;;;;;6167549;23;20204;-80
2021/05/08 00:35:43;;;;;;;4.07;2.90;;;18.00;57.30;;;;;;6119434;23;20196;-80
2021/05/08 00:38:09;;;;;;;5.13;2.88;;;18.00;57.50;;;;;;6119485;23;20631;-79
2021/05/08 00:40:36;;;;;;;4.60;3.17;;;18.00;57.60;;;;;;6119236;23;20510;-81
2021/05/08 00:43:03;;;;;;;3.53;2.80;;;18.00;57.70;;;;;;6119868;23;20150;-80
2021/05/08 00:45:32;;;;;;;3.90;3.00;;;18.00;57.80;;;;;;6169048;23;20131;-80
2021/05/08 00:48:04;;;;;;;4.90;2.95;;;18.00;57.70;;;;;;6119735;23;20147;-80
2021/05/08 00:50:33;;;;;;;4.57;3.05;;;18.00;57.80;;;;;;6144416;23;20162;-80
2021/05/08 00:53:00;;;;;;;4.72;3.08;;;17.90;57.70;;;;;;6119103;23;20147;-80
2021/05/08 00:55:27;;;;;;;6.03;3.00;;;17.90;57.60;;;;;;6144583;23;20163;-79
2021/05/08 00:57:56;;;;;;;4.43;2.75;;;18.00;57.50;;;;;;6120595;23;20231;-80
2021/05/08 01:00:26;;;;;;;4.53;3.00;;;18.00;57.40;;;;;;6121362;23;20206;-79
2021/05/08 01:03:01;;;;;;;4.15;3.28;;;17.90;57.80;;;;;;6145785;23;20147;-81
2021/05/08 01:05:36;;;;;;;4.28;3.00;;;18.00;57.80;;;;;;6145630;23;20633;-79
2021/05/08 01:08:06;;;;;;;4.15;3.03;;;17.90;57.90;;;;;;6170076;23;20139;-81
2021/05/08 01:10:41;;;;;;;4.88;2.90;;;17.90;57.80;;;;;;6146724;23;20150;-80
2021/05/08 01:13:10;;;;;;;4.25;2.90;;;17.90;57.60;;;;;;6169920;23;20131;-80
2021/05/08 01:15:41;;;;;;;5.78;2.90;;;17.90;57.60;;;;;;6147090;23;20186;-80
2021/05/08 01:18:09;;;;;;;5.85;2.83;;;18.00;57.80;;;;;;6146925;23;20132;-80
2021/05/08 01:20:36;;;;;;;5.20;2.70;;;17.90;57.60;;;;;;6121801;23;20183;-80
2021/05/08 01:23:02;;;;;;;5.20;3.20;;;17.90;57.80;;;;;;6196920;23;20154;-81
2021/05/08 01:25:32;;;;;;;4.95;2.88;;;17.90;58.00;;;;;;6146481;23;20138;-80
2021/05/08 01:28:09;;;;;;;4.25;2.95;;;17.90;57.60;;;;;;6121674;23;20147;-80
2021/05/08 01:30:39;;;;;;;3.92;2.70;;;17.90;57.80;;;;;;6169767;23;20474;-79
2021/05/08 01:33:19;;;;;;;6.03;3.30;;;17.90;57.60;;;;;;6121729;23;20151;-81
2021/05/08 01:35:45;;;;;;;6.75;3.15;;;17.90;57.80;;;;;;6147048;23;20174;-80
2021/05/08 01:38:12;;;;;;;4.78;3.20;;;17.90;57.90;;;;;;6145076;23;20182;-80
2021/05/08 01:40:45;;;;;;;5.15;3.10;;;17.90;57.60;;;;;;6145333;23;20158;-79
2021/05/08 01:43:14;;;;;;;3.63;2.88;;;17.80;57.50;;;;;;6146184;23;20147;-80
2021/05/08 01:45:40;;;;;;;5.65;3.00;;;17.90;57.90;;;;;;6145305;23;20477;-80
2021/05/08 01:48:07;;;;;;;4.72;2.95;;;17.90;58.00;;;;;;6144724;23;20147;-79
2021/05/08 01:50:39;;;;;;;4.28;2.80;;;17.90;57.50;;;;;;6145417;23;20139;-80
2021/05/08 01:53:07;;;;;;;4.63;2.80;;;17.90;57.80;;;;;;6145533;23;20142;-80
2021/05/08 01:55:44;;;;;;;5.97;2.80;;;17.90;57.80;;;;;;6144813;23;20189;-81
2021/05/08 01:58:11;;;;;;;3.72;2.67;;;17.90;57.90;;;;;;6148769;23;20510;-80
2021/05/08 02:00:47;;;;;;;5.03;3.00;;;17.90;57.80;;;;;;6169153;23;20183;-79
2021/05/08 02:03:15;;;;;;;4.20;2.72;;;17.90;57.80;;;;;;6169941;23;20142;-80
2021/05/08 02:05:42;;;;;;;4.57;3.00;;;17.90;57.70;;;;;;6170174;23;20135;-80
2021/05/08 02:08:15;;;;;;;3.97;2.83;;;17.90;57.80;;;;;;6144228;23;20170;-80
2021/05/08 02:10:47;;;;;;;4.00;2.88;;;17.90;57.10;;;;;;6144302;23;20161;-79
2021/05/08 02:13:15;;;;;;;5.15;2.92;;;17.80;57.70;;;;;;6143982;23;20139;-79
2021/05/08 02:15:44;;;;;;;4.20;2.95;;;17.90;57.70;;;;;;6119922;23;20147;-80
2021/05/08 02:18:11;;;;;;;4.07;2.67;;;17.90;57.60;;;;;;6144106;23;20515;-80
2021/05/08 02:20:38;;;;;;;3.78;2.90;;;17.90;57.50;;;;;;6119087;23;20630;-79
2021/05/08 02:23:08;;;;;;;3.97;3.00;;;17.90;57.30;;;;;;6120225;23;20142;-79
2021/05/08 02:25:43;;;;;;;5.50;3.28;;;17.80;57.50;;;;;;6145590;23;20131;-80
2021/05/08 02:28:10;;;;;;;4.03;2.92;;;17.80;57.40;;;;;;6168960;23;20475;-80
2021/05/08 02:30:46;;;;;;;3.75;2.90;;;17.90;57.40;;;;;;6195155;23;20135;-79
2021/05/08 02:33:12;;;;;;;3.88;2.97;;;17.80;57.60;;;;;;6168730;23;20130;-79
2021/05/08 02:35:39;;;;;;;4.15;3.00;;;17.80;57.70;;;;;;6144432;23;20166;-79
2021/05/08 02:38:06;;;;;;;4.45;3.10;;;17.80;57.70;;;;;;6119350;23;20221;-80
2021/05/08 02:40:34;;;;;;;4.78;2.90;;;17.80;57.70;;;;;;6119387;23;20300;-79
2021/05/08 02:43:01;;;;;;;4.07;2.78;;;17.80;57.50;;;;;;6144500;23;20469;-79
2021/05/08 02:45:32;;;;;;;3.92;2.97;;;17.80;57.60;;;;;;6119788;23;20143;-79
2021/05/08 02:48:07;;;;;;;4.50;2.72;;;17.80;57.50;;;;;;6144427;23;20146;-79
2021/05/08 02:50:45;;;;;;;6.03;3.25;;;17.80;57.60;;;;;;6169293;23;20142;-80
2021/05/08 02:53:17;;;;;;;4.07;2.70;;;17.80;57.50;;;;;;6144249;23;20594;-79
2021/05/08 02:55:47;;;;;;;3.88;3.05;;;17.80;57.60;;;;;;6170209;23;20134;-79
2021/05/08 02:58:17;;;;;;;4.57;3.10;;;17.80;57.60;;;;;;6120052;23;20334;-79
2021/05/08 03:00:48;;;;;;;6.50;3.33;;;17.80;57.30;;;;;;6120912;23;20150;-81
2021/05/08 03:03:19;;;;;;;4.75;3.20;;;17.80;57.30;;;;;;6120261;23;20153;-79
2021/05/08 03:05:45;;;;;;;4.68;2.78;;;17.80;57.50;;;;;;6170452;23;20131;-79
2021/05/08 03:08:19;;;;;;;7.30;3.28;;;17.80;57.50;;;;;;6150163;23;20146;-79
2021/05/08 03:10:55;;;;;;;5.07;3.10;;;17.80;57.40;;;;;;6151466;23;20156;-79
2021/05/08 03:13:26;;;;;;;4.30;2.78;;;17.80;57.40;;;;;;6226002;23;20569;-79
2021/05/08 03:16:00;;;;;;;4.55;3.10;;;17.80;57.60;;;;;;6150901;23;20137;-79
2021/05/08 03:18:30;;;;;;;4.47;2.88;;;17.80;57.60;;;;;;6150826;23;20154;-79
2021/05/08 03:20:58;;;;;;;6.05;3.03;;;17.80;57.50;;;;;;6176264;23;20219;-80
2021/05/08 03:23:25;;;;;;;3.75;2.80;;;17.80;57.40;;;;;;6176724;23;20227;-79
2021/05/08 03:25:51;;;;;;;4.72;2.90;;;17.80;57.50;;;;;;6152260;23;20153;-80
2021/05/08 03:28:23;;;;;;;3.75;2.88;;;17.80;57.30;;;;;;6151927;23;20142;-79
2021/05/08 03:30:51;;;;;;;4.70;3.05;;;17.80;57.30;;;;;;6177065;23;20130;-79
2021/05/08 03:33:18;;;;;;;3.85;3.08;;;17.80;57.30;;;;;;6151704;23;20570;-80
2021/05/08 03:35:46;;;;;;;4.68;2.90;;;17.80;57.10;;;;;;6200263;23;20153;-80
2021/05/08 03:38:28;;;;;;;3.22;2.88;;;17.80;56.90;;;;;;6177272;23;20512;-79
2021/05/08 03:40:58;;;;;;;4.13;3.08;;;17.80;57.30;;;;;;6179197;23;20158;-79
2021/05/08 03:43:27;;;;;;;4.97;3.03;;;17.80;57.10;;;;;;6153459;23;20513;-79
2021/05/08 03:45:57;;;;;;;5.00;3.10;;;17.90;57.30;;;;;;6154029;23;20161;-79
2021/05/08 03:48:27;;;;;;;4.65;3.05;;;17.80;56.90;;;;;;6203754;23;20138;-79
2021/05/08 03:50:56;;;;;;;4.85;3.30;;;17.90;56.70;;;;;;6154027;23;20166;-79
2021/05/08 03:53:27;;;;;;;4.32;2.97;;;17.90;56.90;;;;;;6154957;23;20142;-79
2021/05/08 03:56:02;;;;;;;5.07;2.70;;;17.90;57.10;;;;;;6204480;23;20582;-79
2021/05/08 03:58:34;;;;;;;3.83;2.95;;;17.90;56.60;;;;;;6179330;23;20161;-79
2021/05/08 04:01:02;;;;;;;5.15;3.15;;;17.90;56.80;;;;;;6154587;23;20139;-79
2021/05/08 04:03:38;;;;;;;4.45;3.00;;;17.90;57.00;;;;;;6152960;23;20150;-80
2021/05/08 04:06:03;;;;;;;5.22;2.78;;;17.90;56.70;;;;;;6176842;23;20223;-80
2021/05/08 04:08:41;;;;;;;6.05;2.92;;;17.90;56.60;;;;;;6201787;23;20134;-79
2021/05/08 04:11:16;;;;;;;3.90;2.78;;;17.90;56.50;;;;;;6230007;23;20149;-79
2021/05/08 04:13:43;;;;;;;4.28;3.10;;;17.90;56.80;;;;;;6179216;23;20148;-80
2021/05/08 04:16:09;;;;;;;4.78;3.10;;;17.90;56.70;;;;;;6203156;23;20150;-79
2021/05/08 04:18:35;;;;;;;5.03;3.15;;;17.90;56.60;;;;;;6177311;23;20177;-80
2021/05/08 04:21:06;;;;;;;3.92;2.70;;;17.90;56.50;;;;;;6150985;23;20482;-79
2021/05/08 04:23:34;;;;;;;4.43;2.60;;;17.90;56.50;;;;;;6202484;23;20150;-79
2021/05/08 04:26:01;;;;;;;3.90;2.75;;;17.90;56.50;;;;;;6178181;23;20162;-79
2021/05/08 04:28:28;;;;;;;4.15;2.80;;;17.90;55.90;;;;;;6177977;23;20135;-79
2021/05/08 04:31:02;;;;;;;5.43;3.17;;;18.00;55.90;;;;;;6178330;23;20147;-80
2021/05/08 04:33:28;;;;;;;4.55;3.10;;;18.00;57.00;;;;;;6231806;23;20134;-79
2021/05/08 04:35:54;;;;;;;5.38;2.92;;;18.00;56.10;;;;;;6180104;23;20597;-80
2021/05/08 04:38:23;;;;;;;4.20;2.88;;;18.00;56.30;;;;;;6154641;23;20170;-79
2021/05/08 04:40:53;;;;;;;7.00;3.17;;;18.00;56.50;;;;;;6181379;23;20130;-79
2021/05/08 04:43:23;;;;;;;5.13;2.92;;;18.00;56.30;;;;;;6179433;23;20127;-79
2021/05/08 04:45:51;;;;;;;4.05;3.03;;;18.00;56.50;;;;;;6180774;23;20122;-79
2021/05/08 04:48:32;;;;;;;4.40;3.08;;;18.00;56.00;;;;;;6179694;23;20142;-79
2021/05/08 04:50:58;;;;;;;4.18;3.00;;;18.00;56.10;;;;;;6180495;23;20130;-79
2021/05/08 04:53:30;;;;;;;4.35;3.00;;;18.00;55.90;;;;;;6154152;23;20161;-79
2021/05/08 04:56:01;;;;;;;5.35;3.15;;;18.00;55.90;;;;;;6179165;23;20146;-79
2021/05/08 04:58:27;;;;;;;4.93;3.05;;;18.00;56.00;;;;;;6204128;23;20137;-79
2021/05/08 05:00:55;;;;;;;4.40;3.13;;;18.00;56.00;;;;;;6154374;23;20169;-80
2021/05/08 05:03:21;;;;;;;5.38;3.20;;;18.00;56.00;;;;;;6179059;23;20146;-79
2021/05/08 05:05:47;;;;;;;4.45;3.40;;;18.10;55.90;;;;;;6201767;23;20134;-79
2021/05/08 05:08:29;;;;;;;3.65;2.92;;;18.10;55.70;;;;;;6134711;23;20625;-80
2021/05/08 05:10:58;;;;;;;4.72;3.08;;;18.10;55.70;;;;;;6148581;23;20147;-81
2021/05/08 05:13:25;;;;;;;4.47;2.88;;;18.20;55.50;;;;;;6124637;23;20155;-81
2021/05/08 05:15:54;;;;;;;4.45;3.15;;;18.10;55.40;;;;;;6149355;23;20167;-80
2021/05/08 05:18:20;;;;;;;3.10;2.70;;;18.20;55.30;;;;;;6148314;23;20147;-80
2021/05/08 05:20:47;;;;;;;4.32;2.90;;;18.10;55.30;;;;;;6123808;23;20158;-79
2021/05/08 05:23:18;;;;;;;4.70;3.00;;;18.20;55.30;;;;;;6149275;23;20628;-79
2021/05/08 05:25:43;;;;;;;5.80;3.03;;;18.20;55.30;;;;;;6174372;23;20130;-79
2021/05/08 05:28:20;;;;;;;4.68;2.90;;;18.10;55.50;;;;;;6149516;23;20127;-81
2021/05/08 05:30:47;;;;;;;4.63;2.80;;;18.10;55.30;;;;;;6126487;23;20151;-82
2021/05/08 05:33:13;;;;;;;4.20;2.92;;;18.20;55.40;;;;;;6150146;23;20177;-80
2021/05/08 05:35:39;;;;;;;4.93;3.17;;;18.20;55.20;;;;;;6121521;23;20154;-80
2021/05/08 05:38:07;;;;;;;4.32;2.63;;;18.20;55.30;;;;;;6125746;23;20210;-81
2021/05/08 05:40:42;;;;;;;3.60;3.05;;;18.10;55.20;;;;;;6150441;23;20199;-81
2021/05/08 05:43:16;;;;;;;4.10;3.00;;;18.20;55.30;;;;;;6175398;23;20150;-81
2021/05/08 05:45:42;;;;;;;4.45;3.13;;;18.10;55.40;;;;;;6150707;23;20178;-82
2021/05/08 05:48:19;;;;;;;3.80;2.85;;;18.10;55.20;;;;;;6174388;23;20151;-82
2021/05/08 05:50:54;;;;;;;3.85;3.00;;;18.10;55.50;;;;;;6173487;23;20155;-81
2021/05/08 05:53:22;;;;;;;3.03;2.60;;;18.10;55.40;;;;;;6199758;23;20134;-81
2021/05/08 05:55:49;;;;;;;4.03;2.97;;;18.10;55.40;;;;;;6170669;23;20210;-81
2021/05/08 05:58:16;;;;;;;3.72;2.70;;;18.10;55.50;;;;;;6199774;23;20135;-80
2021/05/08 06:00:43;;;;;;;3.72;3.15;;;18.10;55.40;;;;;;6200941;23;20170;-80
2021/05/08 06:03:17;;;;;;;5.10;2.90;;;18.20;55.00;;;;;;6200969;23;20131;-80
2021/05/08 06:05:43;;;;;;;3.80;2.92;;;18.20;55.30;;;;;;6149189;23;20177;-81
2021/05/08 06:08:12;;;;;;;3.47;2.60;;;18.20;55.10;;;;;;6150331;23;20154;-81
2021/05/08 06:10:38;;;;;;;4.30;2.90;;;18.20;55.20;;;;;;6150099;23;20143;-81
2021/05/08 06:13:05;;;;;;;3.22;2.72;;;18.20;54.80;;;;;;6175314;23;20139;-81
2021/05/08 06:15:31;;;;;;;4.00;3.00;;;18.20;54.90;;;;;;6166232;23;20139;-83
2021/05/08 06:18:03;;;;;;;4.65;3.10;;;18.20;55.20;;;;;;6139860;23;20471;-82
2021/05/08 06:20:28;;;;;;;4.57;3.25;;;18.30;54.60;;;;;;6142127;23;20551;-82
2021/05/08 06:22:56;;;;;;;4.60;3.22;;;18.30;54.90;;;;;;6166501;23;20127;-83
2021/05/08 06:25:22;;;;;;;4.53;3.10;;;18.30;54.60;;;;;;6142688;23;20150;-82
2021/05/08 06:27:47;;;;;;;3.78;2.83;;;18.20;54.60;;;;;;6166842;23;20127;-82
2021/05/08 06:30:15;;;;;;;3.55;2.83;;;18.20;55.00;;;;;;6117575;23;20147;-82
2021/05/08 06:32:42;;;;;;;3.40;2.90;;;18.30;54.60;;;;;;6142777;23;20173;-82
2021/05/08 06:35:08;;;;;;;4.68;3.22;;;18.30;54.60;;;;;;6167723;23;20443;-83
2021/05/08 06:37:47;;;;;;;5.35;3.03;;;18.40;54.50;;;;;;6143122;23;20165;-82
2021/05/08 06:40:14;;;;;;;4.68;3.08;;;18.30;54.40;;;;;;6142189;23;20177;-82
2021/05/08 06:42:40;;;;;;;3.97;2.70;;;18.30;54.40;;;;;;6193126;23;20130;-82
2021/05/08 06:45:06;;;;;;;5.90;2.88;;;18.40;54.20;;;;;;6141957;23;20191;-82
2021/05/08 06:47:33;;;;;;;4.10;3.25;;;18.40;54.20;;;;;;6141098;23;20166;-82
2021/05/08 06:49:58;;;;;;;4.43;2.92;;;18.40;54.40;;;;;;6143773;23;20178;-83
2021/05/08 06:52:27;;;;;;;4.28;2.97;;;18.30;54.50;;;;;;6117582;23;20139;-82
2021/05/08 06:54:53;;;;;;;5.55;2.90;;;18.40;54.40;;;;;;6168464;23;20491;-81
2021/05/08 06:57:21;;;;;;;4.72;2.80;;;18.30;54.00;;;;;;6147415;23;20531;-82
2021/05/08 06:59:48;;;;;;;4.90;2.97;;;18.40;54.00;;;;;;6171790;23;20159;-81
2021/05/08 07:02:14;;;;;;;5.82;3.10;;;18.40;53.70;;;;;;6172633;23;20135;-82
2021/05/08 07:04:41;;;;;;;3.72;2.90;;;18.50;53.70;;;;;;6170143;23;20132;-82
2021/05/08 07:07:06;;;;;;;3.45;2.85;;;18.40;54.20;;;;;;6186126;23;20188;-82
2021/05/08 07:09:41;;;;;;;3.63;3.00;;;18.30;54.30;;;;;;6173315;23;20142;-83
2021/05/08 07:12:10;;;;;;;4.80;2.90;;;18.40;54.40;;;;;;6199046;23;20134;-82
2021/05/08 07:14:44;;;;;;;5.35;3.30;;;18.40;53.80;;;;;;6199276;23;20146;-82
2021/05/08 07:17:11;;;;;;;3.28;2.88;;;18.40;54.20;;;;;;6174228;23;20141;-82
2021/05/08 07:19:39;;;;;;;5.05;3.17;;;18.50;54.00;;;;;;6174525;23;20170;-82
2021/05/08 07:22:13;;;;;;;4.78;3.28;;;18.50;53.50;;;;;;6200028;23;20184;-82
2021/05/08 07:24:48;;;;;;;5.28;3.53;;;18.50;53.90;;;;;;6174143;23;20139;-82
2021/05/08 07:27:14;;;;;;;5.10;3.10;;;18.50;53.70;;;;;;6173542;23;20210;-82
2021/05/08 07:29:48;;;;;;;3.85;2.90;;;18.50;53.60;;;;;;6174050;23;20138;-81
2021/05/08 07:32:14;;;;;;;3.80;3.00;;;18.50;53.80;;;;;;6198984;23;20153;-82
2021/05/08 07:34:49;;;;;;;4.28;3.08;;;18.60;53.50;;;;;;6175997;23;20143;-82
2021/05/08 07:37:16;;;;;;;4.82;2.95;;;18.60;53.40;;;;;;6176611;23;20169;-82
2021/05/08 07:39:44;;;;;;;4.00;2.92;;;18.60;53.00;;;;;;6175782;23;20166;-82
2021/05/08 07:42:11;;;;;;;4.43;3.17;;;18.60;53.50;;;;;;6175876;23;20141;-82
2021/05/08 07:44:46;;;;;;;4.05;2.85;;;18.60;53.40;;;;;;6150079;23;20145;-82
2021/05/08 07:47:15;;;;;;;3.45;2.78;;;18.60;53.30;;;;;;6174544;23;20145;-82
2021/05/08 07:49:42;;;;;;;4.10;2.97;;;18.50;53.70;;;;;;6200040;23;20139;-81
2021/05/08 07:52:17;;;;;;;3.65;2.78;;;18.50;53.80;;;;;;6199287;23;20141;-81
2021/05/08 07:54:51;;;;;;;4.32;2.83;;;18.50;53.60;;;;;;6199323;23;20136;-82
2021/05/08 07:57:18;;;;;;;4.05;3.00;;;18.60;53.30;;;;;;6200752;23;20133;-82
2021/05/08 07:59:45;;;;;;;4.43;3.22;;;18.70;53.00;;;;;;6224979;23;20166;-82
2021/05/08 08:02:20;;;;;;;3.75;2.85;;;18.60;53.40;;;;;;6174008;23;20138;-82
2021/05/08 08:04:46;;;;;;;4.03;3.00;;;18.60;53.10;;;;;;6200152;23;20136;-82
2021/05/08 08:07:13;;;;;;;3.88;3.10;;;18.70;53.30;;;;;;6173769;23;20200;-82
2021/05/08 08:09:42;;;;;;;3.75;2.90;;;18.60;53.00;;;;;;6177247;23;20142;-82
2021/05/08 08:12:12;;;;;;;4.32;3.33;;;18.70;53.90;;;;;;6201296;23;20134;-82
2021/05/08 08:14:39;;;;;;;3.42;2.70;;;18.60;53.30;;;;;;6176122;23;20142;-82
2021/05/08 08:17:05;;;;;;;3.80;2.95;;;18.60;53.10;;;;;;6201261;23;20157;-83
2021/05/08 08:19:40;;;;;;;3.70;3.20;;;18.60;53.40;;;;;;6175147;23;20173;-82
2021/05/08 08:22:07;;;;;;;3.65;2.95;;;18.60;53.60;;;;;;6199144;23;20173;-82
2021/05/08 08:24:34;;;;;;;4.07;2.90;;;18.60;53.00;;;;;;6174431;23;20145;-82
2021/05/08 08:27:00;;;;;;;4.20;2.78;;;18.50;53.20;;;;;;6200248;23;20138;-82
2021/05/08 08:29:35;;;;;;;4.90;3.10;;;18.50;53.70;;;;;;6199697;23;20134;-82
2021/05/08 08:32:09;;;;;;;4.55;3.00;;;18.50;53.10;;;;;;6199355;23;20129;-82
2021/05/08 08:34:37;;;;;;;3.38;2.90;;;18.40;53.00;;;;;;6202385;23;20176;-82
2021/05/08 08:37:06;;;;;;;3.47;2.72;;;18.40;53.10;;;;;;6178126;23;20210;-82
2021/05/08 08:39:34;;;;;;;3.92;2.97;;;18.40;53.50;;;;;;6174817;23;20170;-82
2021/05/08 08:42:00;;;;;;;3.90;3.17;;;18.40;53.40;;;;;;6177645;23;20486;-82
2021/05/08 08:44:27;;;;;;;4.45;3.13;;;18.40;52.40;;;;;;6176650;23;20143;-82
2021/05/08 08:46:56;;;;;;;4.03;3.10;;;18.50;52.70;;;;;;6228649;23;20173;-82
2021/05/08 08:49:27;;;;;;;3.85;2.83;;;18.40;52.80;;;;;;6175363;23;20138;-82
2021/05/08 08:51:54;;;;;;;4.60;2.80;;;18.40;53.80;;;;;;6176920;23;20153;-82
2021/05/08 08:54:22;;;;;;;3.60;2.90;;;18.30;53.20;;;;;;6174638;23;20142;-82
2021/05/08 08:56:51;;;;;;;3.83;2.83;;;18.40;52.10;;;;;;6200979;23;20150;-82
2021/05/08 09:01:52;;;;;;;5.45;3.10;;;18.40;52.80;;;;;;6203349;23;20185;-82
2021/05/08 09:04:19;;;;;;;5.13;3.08;;;18.40;53.00;;;;;;6150032;23;20138;-81
2021/05/08 09:06:45;;;;;;;3.83;2.92;;;18.30;53.20;;;;;;6159870;23;20194;-82
2021/05/08 09:09:13;;;;;;;3.67;2.92;;;18.40;53.20;;;;;;6165408;23;20181;-82
2021/05/08 09:12:07;;;;;;;4.45;3.17;;;18.40;52.90;;;;;;6190903;23;20567;-81
2021/05/08 09:14:35;;;;;;;5.85;3.30;;;18.40;53.20;;;;;;6136970;23;20624;-81
2021/05/08 09:17:07;;;;;;;3.95;3.13;;;18.40;52.20;;;;;;6191305;23;20161;-83
2021/05/08 09:19:43;;;;;;;4.78;3.13;;;18.50;53.00;;;;;;6165031;23;20201;-81
2021/05/08 09:22:39;;;;;;;4.30;2.97;;;18.40;52.30;;;;;;6191121;23;20135;-81
2021/05/08 09:25:16;;;;;;;3.88;3.08;;;18.40;52.10;;;;;;6164551;23;20143;-79
2021/05/08 09:27:50;;;;;;;4.28;3.00;;;18.30;53.10;;;;;;6142810;23;20142;-81
2021/05/08 09:30:21;;;;;;;3.67;2.97;;;18.30;52.50;;;;;;6166998;23;20150;-82
2021/05/08 09:32:56;;;;;;;4.03;3.13;;;18.30;53.00;;;;;;6195477;23;20127;-81
2021/05/08 09:35:29;;;;;;;3.42;2.80;;;18.30;53.10;;;;;;6193718;23;20135;-81
2021/05/08 09:38:12;;;;;;;5.53;3.17;;;18.30;52.30;;;;;;6142487;23;20151;-82
2021/05/08 09:40:46;;;;;;;4.80;3.25;;;18.30;52.00;;;;;;6165086;23;20228;-81
2021/05/08 09:43:16;;;;;;;4.03;3.30;;;18.30;53.20;;;;;;6166211;23;20126;-82
2021/05/08 09:45:45;;;;;;;5.40;3.33;;;18.30;51.70;;;;;;6139782;23;20150;-82
2021/05/08 09:48:21;;;;;;;5.38;3.13;;;18.30;53.00;;;;;;6166257;23;20198;-83
2021/05/08 09:50:49;;;;;;;4.63;3.33;;;18.30;53.30;;;;;;6167386;23;20147;-82
2021/05/08 09:53:31;;;;;;;5.55;3.75;;;18.30;53.50;;;;;;6143299;23;20248;-82
2021/05/08 09:56:31;;;;;;;8.00;3.28;;;18.20;52.80;;;;;;6165410;23;20161;-82
2021/05/08 09:59:17;;;;;;;6.93;3.25;;;18.30;52.40;;;;;;6161630;23;20258;-81
2021/05/08 10:01:44;;;;;;;3.83;3.17;;;18.30;52.30;;;;;;6188178;23;20470;-81
2021/05/08 10:04:27;;;;;;;5.05;3.33;;;18.30;52.80;;;;;;6188019;23;20210;-82
2021/05/08 10:07:21;;;;;;;3.47;2.85;;;18.30;52.80;;;;;;6178045;23;20236;-82
2021/05/08 10:09:49;;;;;;;4.68;3.20;;;18.40;53.20;;;;;;6167753;23;20159;-82
2021/05/08 10:12:16;;;;;;;7.80;3.35;;;18.40;52.90;;;;;;6185629;23;20158;-82
2021/05/08 10:14:47;;;;;;;6.78;3.28;;;18.40;51.50;;;;;;6164292;23;20546;-83
2021/05/08 10:17:14;;;;;;;5.50;3.35;;;18.50;52.00;;;;;;6162816;23;20426;-81
2021/05/08 10:19:41;;;;;;;5.00;3.22;;;18.60;51.60;;;;;;6162886;23;20170;-82
2021/05/08 10:22:09;;;;;;;4.90;3.45;;;18.50;52.00;;;;;;6139617;23;20151;-81
2021/05/08 10:24:49;;;;;;;6.10;3.70;;;18.50;51.70;;;;;;6189026;23;20135;-81
2021/05/08 10:27:16;;;;;;;5.38;2.95;;;18.60;50.50;;;;;;6139091;23;20165;-82
2021/05/08 10:29:51;;;;;;;6.43;3.70;;;18.50;52.70;;;;;;6163981;23;20581;-82
2021/05/08 10:32:26;;;;;;;6.70;3.58;;;18.60;51.20;;;;;;6141016;23;20142;-81
2021/05/08 10:35:03;;;;;;;3.97;3.33;;;18.60;51.60;;;;;;6165745;23;20143;-82
2021/05/08 10:37:30;;;;;;;7.72;3.88;;;18.60;50.50;;;;;;6165954;23;20189;-81
2021/05/08 10:40:18;;;;;;;4.72;3.60;;;18.60;49.30;;;;;;6190733;23;20521;-82
2021/05/08 10:42:44;;;;;;;5.25;3.53;;;18.60;50.50;;;;;;6188248;23;20162;-81
2021/05/08 10:45:14;;;;;;;5.75;3.33;;;18.60;51.60;;;;;;6162334;23;20182;-80
2021/05/08 10:47:58;;;;;;;5.13;3.42;;;18.50;51.00;;;;;;6167332;23;20146;-78
2021/05/08 10:50:37;;;;;;;5.75;3.67;;;18.50;50.70;;;;;;6191127;23;20150;-80
2021/05/08 10:53:10;;;;;;;4.50;3.60;;;18.50;50.60;;;;;;6190149;23;20153;-82
2021/05/08 10:55:59;;;;;;;6.68;3.50;;;18.50;51.80;;;;;;6139313;23;20698;-81
2021/05/08 10:58:26;;;;;;;5.97;3.90;;;18.50;50.80;;;;;;6169148;23;20222;-81
2021/05/08 11:01:09;;;;;;;4.78;3.72;;;18.50;52.00;;;;;;6138734;23;20179;-82
2021/05/08 11:03:47;;;;;;;6.15;3.53;;;18.40;52.80;;;;;;6190999;23;20137;-81
2021/05/08 11:06:15;;;;;;;5.15;3.58;;;18.50;51.70;;;;;;6191957;23;20481;-81
2021/05/08 11:08:45;;;;;;;5.75;3.38;;;18.40;51.60;;;;;;6163454;23;20185;-81
2021/05/08 11:11:16;;;;;;;6.57;4.25;;;18.50;51.60;;;;;;6161644;23;20641;-81
2021/05/08 11:13:42;;;;;;;7.03;4.10;;;18.50;51.20;;;;;;6162194;23;20262;-81
2021/05/08 11:16:09;;;;;;;6.25;4.30;;;18.50;50.60;;;;;;6188376;23;20127;-81
2021/05/08 11:18:44;;;;;;;4.28;3.33;;;18.50;50.50;;;;;;6162330;23;20155;-82
2021/05/08 11:21:13;;;;;;;8.45;4.00;;;18.60;51.30;;;;;;6164325;23;20582;-81
2021/05/08 11:23:58;;;;;;;5.93;3.88;;;18.60;49.70;;;;;;6165590;23;20185;-82
2021/05/08 11:26:25;;;;;;;5.70;3.85;;;18.60;51.20;;;;;;6190724;23;20130;-82
2021/05/08 11:29:11;;;;;;;5.82;4.05;;;18.60;50.90;;;;;;6165029;23;20151;-82
2021/05/08 11:31:53;;;;;;;6.20;3.78;;;18.60;51.50;;;;;;6166935;23;20182;-82
2021/05/08 11:34:29;;;;;;;6.68;3.83;;;18.60;50.20;;;;;;6187972;23;20131;-81
2021/05/08 11:36:57;;;;;;;6.25;4.18;;;18.60;51.20;;;;;;6163176;23;20162;-81
2021/05/08 11:39:29;;;;;;;6.05;4.28;;;18.70;51.80;;;;;;6190047;23;20172;-81
2021/05/08 11:41:59;;;;;;;7.72;3.88;;;18.60;50.90;;;;;;6190123;23;20242;-82
2021/05/08 11:44:45;;;;;;;6.20;4.07;;;18.70;50.80;;;;;;6164947;23;20162;-81
2021/05/08 11:47:28;;;;;;;7.13;4.00;;;18.60;51.10;;;;;;6161374;23;20162;-82
2021/05/08 11:49:55;;;;;;;4.63;3.88;;;18.60;51.40;;;;;;6189922;23;20150;-81
2021/05/08 11:52:53;;;;;;;5.35;3.78;;;18.70;50.20;;;;;;6138795;23;20154;-81
2021/05/08 11:55:27;;;;;;;6.15;4.20;;;18.70;50.80;;;;;;6194908;23;20158;-82
2021/05/08 11:57:57;;;;;;;6.18;4.20;;;18.70;51.20;;;;;;6194137;23;20161;-81
2021/05/08 12:00:25;;;;;;;6.55;4.30;;;18.70;50.90;;;;;;6167620;23;20623;-81
2021/05/08 12:03:13;;;;;;;6.93;4.20;;;18.70;50.60;;;;;;6167916;23;20131;-82
2021/05/08 12:05:43;;;;;;;6.78;4.53;;;18.70;50.60;;;;;;6189802;23;20567;-82
2021/05/08 12:08:17;;;;;;;5.97;4.40;;;18.70;52.10;;;;;;6164318;23;20187;-82
2021/05/08 12:10:44;;;;;;;6.65;3.70;;;18.70;50.80;;;;;;6189069;23;20134;-82
2021/05/08 12:13:19;;;;;;;5.90;4.38;;;18.70;50.80;;;;;;6138816;23;20166;-82
2021/05/08 12:15:52;;;;;;;4.93;3.95;;;18.70;50.50;;;;;;6190434;23;20134;-82
2021/05/08 12:18:28;;;;;;;4.60;3.70;;;18.70;51.10;;;;;;6164186;23;20139;-82
2021/05/08 12:20:57;;;;;;;6.55;4.18;;;18.70;51.20;;;;;;6164784;23;20162;-82
2021/05/08 12:23:24;;;;;;;7.03;4.18;;;18.70;51.00;;;;;;6192286;23;20127;-82
2021/05/08 12:26:09;;;;;;;5.05;4.07;;;18.70;50.80;;;;;;6161007;23;20137;-82
2021/05/08 12:28:36;;;;;;;5.50;4.50;;;18.70;50.80;;;;;;6163722;23;20135;-82
2021/05/08 12:31:21;;;;;;;8.35;4.60;;;18.70;50.50;;;;;;6191999;23;20417;-82
2021/05/08 12:33:47;;;;;;;6.05;4.10;;;18.70;51.00;;;;;;6170118;23;20135;-82
2021/05/08 12:36:15;;;;;;;6.57;3.83;;;18.70;50.80;;;;;;6171204;23;20217;-81
2021/05/08 12:38:42;;;;;;;5.43;4.10;;;18.70;51.40;;;;;;6172872;23;20134;-81
2021/05/08 12:41:29;;;;;;;6.97;4.25;;;18.70;51.20;;;;;;6170915;23;20135;-82
2021/05/08 12:44:14;;;;;;;5.18;4.00;;;18.70;51.30;;;;;;6195979;23;20209;-82
2021/05/08 12:46:59;;;;;;;11.68;4.22;;;18.70;51.00;;;;;;6172065;23;20131;-82
2021/05/08 12:49:36;;;;;;;8.05;4.32;;;18.70;51.20;;;;;;6197794;23;20131;-82
2021/05/08 12:52:22;;;;;;;4.95;4.00;;;18.70;51.20;;;;;;6148639;23;20150;-81
2021/05/08 12:54:50;;;;;;;11.85;5.40;;;18.70;50.90;;;;;;6199738;23;20145;-82
2021/05/08 12:57:17;;;;;;;7.75;4.25;;;18.70;51.60;;;;;;6171008;23;20478;-82
2021/05/08 13:00:07;;;;;;;7.20;4.28;;;18.60;51.50;;;;;;6199496;23;20163;-82
2021/05/08 13:03:00;;;;;;;6.13;4.35;;;18.60;51.50;;;;;;6194609;23;20146;-81
2021/05/08 13:05:38;;;;;;;12.13;4.72;;;18.70;51.50;;;;;;6170829;23;20216;-82
2021/05/08 13:08:05;;;;;;;6.28;4.15;;;18.70;51.40;;;;;;6146754;23;20194;-82